createdAt,value
2023-02-05T00:00:19.090Z,13.55
2023-02-05T00:02:45.648Z,12.27
2023-02-05T00:05:12.335Z,13.07
2023-02-05T00:07:38.697Z,13.15
2023-02-05T00:10:05.748Z,13.60
2023-02-05T00:12:32.352Z,12.73
2023-02-05T00:14:58.810Z,14.23
2023-02-05T00:17:25.204Z,13.40
2023-02-05T00:19:51.598Z,12.85
2023-02-05T00:22:17.978Z,13.88
2023-02-05T00:24:44.406Z,13.70
2023-02-05T00:27:10.938Z,14.00
2023-02-05T00:29:37.986Z,13.40
2023-02-05T00:32:04.588Z,14.93
2023-02-05T00:34:30.977Z,13.85
2023-02-05T00:36:57.565Z,14.52
2023-02-05T00:39:23.955Z,13.32
2023-02-05T00:41:50.861Z,13.73
2023-02-05T00:44:17.225Z,14.40
2023-02-05T00:46:43.614Z,14.98
2023-02-05T00:49:10.003Z,14.75
2023-02-05T00:51:36.486Z,14.32
2023-02-05T00:54:02.899Z,14.60
2023-02-05T00:56:29.706Z,13.18
2023-02-05T00:58:57.456Z,13.98
2023-02-05T01:01:23.912Z,14.52
2023-02-05T01:03:50.356Z,13.80
2023-02-05T01:06:16.940Z,14.73
2023-02-05T01:08:43.384Z,14.00
2023-02-05T01:11:11.147Z,14.00
2023-02-05T01:13:38.455Z,14.40
2023-02-05T01:16:05.463Z,14.15
2023-02-05T01:18:32.078Z,14.68
2023-02-05T01:20:59.192Z,14.63
2023-02-05T01:23:25.847Z,14.68
2023-02-05T01:25:52.367Z,13.10
2023-02-05T01:28:18.941Z,13.85
2023-02-05T01:30:50.209Z,14.52
2023-02-05T01:33:17.562Z,14.88
2023-02-05T01:35:44.855Z,14.18
2023-02-05T01:38:12.561Z,14.05
2023-02-05T01:40:39.651Z,15.13
2023-02-05T01:43:14.092Z,14.23
2023-02-05T01:46:05.677Z,14.35
2023-02-05T01:48:43.802Z,13.55
2023-02-05T01:51:14.301Z,13.77
2023-02-05T01:53:42.637Z,14.68
2023-02-05T01:56:14.756Z,13.60
2023-02-05T01:58:48.053Z,13.73
2023-02-05T02:01:15.166Z,14.98
2023-02-05T02:03:41.688Z,14.60
2023-02-05T02:06:09.378Z,12.85
2023-02-05T02:08:35.829Z,13.45
2023-02-05T02:11:05.470Z,13.93
2023-02-05T02:13:35.367Z,14.27
2023-02-05T02:16:06.462Z,14.07
2023-02-05T02:18:34.775Z,14.23
2023-02-05T02:21:29.499Z,13.75
2023-02-05T02:24:33.625Z,15.15
2023-02-05T02:27:10.200Z,14.43
2023-02-05T02:29:53.877Z,14.25
2023-02-05T02:35:23.402Z,14.50
2023-02-05T02:37:54.855Z,15.30
2023-02-05T02:40:44.583Z,15.40
2023-02-05T02:43:29.376Z,15.00
2023-02-05T02:46:05.316Z,15.10
2023-02-05T02:48:35.026Z,15.23
2023-02-05T02:51:03.466Z,14.77
2023-02-05T02:53:36.460Z,14.80
2023-02-05T02:56:04.520Z,16.08
2023-02-05T02:58:38.798Z,15.38
2023-02-05T03:01:08.876Z,14.80
2023-02-05T03:03:38.363Z,16.10
2023-02-05T03:06:09.753Z,15.00
2023-02-05T03:08:47.155Z,14.82
2023-02-05T03:11:15.600Z,14.70
2023-02-05T03:13:44.716Z,15.20
2023-02-05T03:16:12.815Z,15.55
2023-02-05T03:18:40.048Z,16.60
2023-02-05T03:21:16.614Z,17.02
2023-02-05T03:23:43.865Z,15.90
2023-02-05T03:26:29.213Z,16.30
2023-02-05T03:29:11.560Z,16.27
2023-02-05T03:31:48.270Z,15.77
2023-02-05T03:34:37.619Z,17.13
2023-02-05T03:37:16.522Z,16.75
2023-02-05T03:39:48.180Z,20.15
2023-02-05T03:43:05.182Z,18.92
2023-02-05T03:46:03.260Z,18.98
2023-02-05T03:48:45.574Z,19.80
2023-02-05T03:51:55.375Z,19.92
2023-02-05T03:54:38.648Z,22.98
2023-02-05T03:57:23.961Z,25.17
2023-02-05T03:59:52.229Z,26.15
2023-02-05T04:02:20.917Z,26.63
2023-02-05T04:04:47.684Z,27.60
2023-02-05T04:07:14.895Z,27.88
2023-02-05T04:09:41.809Z,25.77
2023-02-05T04:12:09.709Z,26.20
2023-02-05T04:14:37.921Z,27.70
2023-02-05T04:17:04.873Z,30.30
2023-02-05T04:19:31.252Z,30.65
2023-02-05T04:21:59.910Z,31.38
2023-02-05T04:24:27.342Z,31.58
2023-02-05T04:26:53.897Z,30.98
2023-02-05T04:29:20.505Z,30.40
2023-02-05T04:31:50.226Z,29.63
2023-02-05T04:34:16.785Z,30.27
2023-02-05T04:36:43.873Z,30.27
2023-02-05T04:39:10.742Z,32.22
2023-02-05T04:41:37.336Z,31.35
2023-02-05T04:44:03.987Z,29.02
2023-02-05T04:46:30.654Z,29.10
2023-02-05T04:48:57.043Z,29.35
2023-02-05T04:51:23.756Z,28.60
2023-02-05T04:53:50.231Z,28.92
2023-02-05T04:56:17.860Z,29.20
2023-02-05T04:58:45.159Z,28.90
2023-02-05T05:01:18.096Z,30.42
2023-02-05T05:03:45.028Z,30.85
2023-02-05T05:06:12.381Z,30.13
2023-02-05T05:08:39.060Z,31.13
2023-02-05T05:11:07.806Z,29.05
2023-02-05T05:13:35.359Z,30.33
2023-02-05T05:16:02.835Z,32.85
2023-02-05T05:18:29.374Z,30.60
2023-02-05T05:20:56.035Z,29.98
2023-02-05T05:23:22.546Z,33.30
2023-02-05T05:25:49.046Z,31.25
2023-02-05T05:28:16.585Z,30.70
2023-02-05T05:30:44.668Z,30.63
2023-02-05T05:33:11.518Z,32.22
2023-02-05T05:35:38.546Z,31.80
2023-02-05T05:38:05.490Z,33.90
2023-02-05T05:40:51.950Z,33.05
2023-02-05T05:43:39.314Z,35.42
2023-02-05T05:46:06.854Z,35.25
2023-02-05T05:48:33.428Z,34.33
2023-02-05T05:50:59.997Z,33.88
2023-02-05T05:53:26.446Z,33.55
2023-02-05T05:55:52.894Z,32.35
2023-02-05T05:58:19.295Z,37.42
2023-02-05T06:00:45.945Z,35.67
2023-02-05T06:03:13.264Z,34.55
2023-02-05T06:05:39.676Z,37.88
2023-02-05T06:08:06.174Z,35.63
2023-02-05T06:10:33.314Z,35.40
2023-02-05T06:13:00.124Z,36.58
2023-02-05T06:15:26.824Z,36.40
2023-02-05T06:17:53.418Z,37.10
2023-02-05T06:20:20.637Z,34.80
2023-02-05T06:22:47.004Z,34.25
2023-02-05T06:25:13.505Z,35.05
2023-02-05T06:27:39.872Z,36.47
2023-02-05T06:30:06.688Z,34.03
2023-02-05T06:32:33.279Z,33.88
2023-02-05T06:34:59.654Z,30.25
2023-02-05T06:37:45.446Z,31.25
2023-02-05T06:40:15.383Z,30.77
2023-02-05T06:42:41.761Z,31.05
2023-02-05T06:45:09.965Z,30.98
2023-02-05T06:47:37.779Z,28.23
2023-02-05T06:50:06.255Z,27.40
2023-02-05T06:52:32.785Z,26.90
2023-02-05T06:54:59.198Z,25.95
2023-02-05T06:57:25.817Z,24.67
2023-02-05T06:59:52.285Z,24.20
2023-02-05T07:02:18.744Z,22.17
2023-02-05T07:04:47.026Z,21.33
2023-02-05T07:07:13.628Z,23.40
2023-02-05T07:09:40.032Z,22.27
2023-02-05T07:12:06.845Z,21.48
2023-02-05T07:14:40.420Z,21.20
2023-02-05T07:17:07.513Z,20.15
2023-02-05T07:19:34.868Z,21.42
2023-02-05T07:22:01.285Z,20.42
2023-02-05T07:24:27.740Z,20.42
2023-02-05T07:26:54.178Z,20.08
2023-02-05T07:29:20.659Z,20.00
2023-02-05T07:31:49.429Z,19.48
2023-02-05T07:34:15.858Z,19.38
2023-02-05T07:36:42.219Z,19.83
2023-02-05T07:39:08.618Z,18.10
2023-02-05T07:41:35.082Z,17.02
2023-02-05T07:44:01.481Z,18.20
2023-02-05T07:46:29.386Z,17.27
2023-02-05T07:48:55.860Z,17.80
2023-02-05T07:51:24.709Z,16.90
2023-02-05T07:53:52.234Z,16.38
2023-02-05T07:56:22.604Z,16.77
2023-02-05T07:58:49.155Z,17.45
2023-02-05T08:01:16.034Z,16.00
2023-02-05T08:03:42.768Z,13.80
2023-02-05T08:06:11.423Z,12.52
2023-02-05T08:08:37.821Z,11.75
2023-02-05T08:11:06.330Z,10.63
2023-02-05T08:13:34.140Z,9.13
2023-02-05T08:16:04.983Z,5.57
2023-02-05T08:18:31.373Z,3.40
2023-02-05T08:20:57.743Z,2.97
2023-02-05T08:23:24.445Z,2.22
2023-02-05T08:25:55.229Z,1.73
2023-02-05T08:28:22.270Z,1.50
2023-02-05T08:30:49.114Z,1.70
2023-02-05T08:33:15.510Z,1.20
2023-02-05T08:35:42.004Z,1.45
2023-02-05T08:38:08.390Z,1.23
2023-02-05T08:40:35.908Z,1.40
2023-02-05T08:43:02.659Z,1.20
2023-02-05T08:45:29.656Z,1.02
2023-02-05T08:47:56.747Z,1.27
2023-02-05T08:50:23.324Z,1.40
2023-02-05T08:52:50.069Z,1.17
2023-02-05T08:55:20.353Z,1.20
2023-02-05T08:57:46.769Z,1.27
2023-02-05T09:00:15.048Z,1.00
2023-02-05T09:02:43.077Z,1.17
2023-02-05T09:05:10.047Z,1.30
2023-02-05T09:07:41.016Z,1.20
2023-02-05T09:10:09.800Z,1.35
2023-02-05T09:12:36.825Z,1.52
2023-02-05T09:15:04.118Z,2.00
2023-02-05T09:17:30.841Z,1.60
2023-02-05T09:19:57.940Z,1.67
2023-02-05T09:22:24.391Z,1.90
2023-02-05T09:24:50.771Z,1.98
2023-02-05T09:27:17.179Z,2.13
2023-02-05T09:29:43.601Z,1.80
2023-02-05T09:32:09.989Z,1.70
2023-02-05T09:34:36.394Z,2.53
2023-02-05T09:37:02.798Z,2.45
2023-02-05T09:40:17.181Z,2.20
2023-02-05T09:42:36.662Z,2.05
2023-02-05T09:45:13.607Z,2.00
2023-02-05T09:47:57.121Z,2.47
2023-02-05T09:50:29.755Z,2.30
2023-02-05T09:53:12.197Z,1.83
2023-02-05T09:55:44.747Z,1.88
2023-02-05T09:58:23.770Z,1.73
2023-02-05T10:00:58.429Z,2.10
2023-02-05T10:03:32.441Z,2.45
2023-02-05T10:06:13.688Z,1.67
2023-02-05T10:08:49.162Z,1.90
2023-02-05T10:11:38.218Z,1.80
2023-02-05T10:14:30.685Z,2.20
2023-02-05T10:17:15.320Z,1.60
2023-02-05T10:19:55.880Z,1.80
2023-02-05T10:22:31.882Z,2.20
2023-02-05T10:25:04.540Z,2.47
2023-02-05T10:27:43.638Z,2.50
2023-02-05T10:30:24.576Z,2.08
2023-02-05T10:32:59.900Z,2.10
2023-02-05T10:35:39.062Z,2.13
2023-02-05T10:38:16.814Z,2.35
2023-02-05T10:40:46.432Z,3.47
2023-02-05T10:43:36.007Z,2.95
2023-02-05T10:46:03.369Z,3.42
2023-02-05T10:49:01.199Z,2.88
2023-02-05T10:51:40.155Z,2.80
2023-02-05T10:54:18.991Z,2.45
2023-02-05T10:56:45.734Z,2.70
2023-02-05T10:59:26.400Z,2.97
2023-02-05T11:01:55.962Z,2.63
2023-02-05T11:04:33.640Z,3.03
2023-02-05T11:07:01.535Z,3.15
2023-02-05T11:09:30.897Z,2.58
2023-02-05T11:12:06.435Z,3.50
2023-02-05T11:14:36.869Z,4.10
2023-02-05T11:17:24.874Z,4.07
2023-02-05T11:20:05.958Z,2.95
2023-02-05T11:22:39.383Z,3.83
2023-02-05T11:27:57.527Z,2.95
2023-02-05T11:30:56.006Z,3.58
2023-02-05T11:33:21.872Z,3.10
2023-02-05T11:36:02.650Z,3.13
2023-02-05T11:38:33.918Z,3.35
2023-02-05T11:41:04.095Z,2.80
2023-02-05T11:43:34.238Z,3.25
2023-02-05T11:46:03.615Z,2.50
2023-02-05T11:48:44.624Z,2.45
2023-02-05T11:51:15.547Z,2.15
2023-02-05T11:53:54.737Z,1.95
2023-02-05T11:56:25.386Z,2.17
2023-02-05T11:59:04.028Z,2.40
2023-02-05T12:01:33.746Z,2.47
2023-02-05T12:04:06.383Z,2.42
2023-02-05T12:06:41.502Z,2.15
2023-02-05T12:09:12.642Z,2.40
2023-02-05T12:12:03.981Z,2.72
2023-02-05T12:14:39.784Z,2.85
2023-02-05T12:17:28.140Z,2.03
2023-02-05T12:20:22.681Z,2.35
2023-02-05T12:23:04.525Z,1.67
2023-02-05T12:25:54.237Z,1.85
2023-02-05T12:28:33.256Z,1.83
2023-02-05T12:31:08.589Z,1.85
2023-02-05T12:33:44.274Z,1.60
2023-02-05T12:36:22.967Z,1.48
2023-02-05T12:39:14.487Z,1.83
2023-02-05T12:42:18.537Z,1.67
2023-02-05T12:45:22.769Z,2.15
2023-02-05T12:50:40.530Z,2.13
2023-02-05T12:53:39.150Z,2.00
2023-02-05T12:56:39.870Z,2.28
2023-02-05T12:59:14.836Z,1.60
2023-02-05T13:01:48.780Z,1.88
2023-02-05T13:04:28.575Z,2.20
2023-02-05T13:07:05.642Z,2.03
2023-02-05T13:09:46.458Z,1.83
2023-02-05T13:12:17.648Z,1.80
2023-02-05T13:14:47.894Z,1.92
2023-02-05T13:17:29.296Z,2.33
2023-02-05T13:20:01.015Z,2.28
2023-02-05T13:22:54.811Z,2.33
2023-02-05T13:25:38.561Z,2.47
2023-02-05T13:28:39.929Z,2.60
2023-02-05T13:31:16.612Z,1.80
2023-02-05T13:33:43.985Z,1.70
2023-02-05T13:36:27.143Z,1.83
2023-02-05T13:39:13.786Z,1.60
2023-02-05T13:41:43.219Z,2.17
2023-02-05T13:44:28.442Z,1.85
2023-02-05T13:47:35.430Z,2.25
2023-02-05T13:50:16.878Z,2.13
2023-02-05T13:53:06.126Z,2.60
2023-02-05T13:56:03.572Z,2.22
2023-02-05T13:58:52.654Z,2.13
2023-02-05T14:01:25.280Z,2.03
2023-02-05T14:04:02.428Z,2.05
2023-02-05T14:06:35.804Z,1.98
2023-02-05T14:14:39.080Z,1.95
2023-02-05T14:17:43.792Z,1.80
2023-02-05T14:20:25.334Z,2.42
2023-02-05T14:22:57.717Z,2.05
2023-02-05T14:25:36.926Z,2.40
2023-02-05T14:28:28.023Z,1.75
2023-02-05T14:31:03.589Z,2.20
2023-02-05T14:33:39.345Z,2.42
2023-02-05T14:36:22.518Z,1.83
2023-02-05T14:38:59.206Z,2.92
2023-02-05T14:41:33.669Z,2.05
2023-02-05T14:44:04.097Z,2.92
2023-02-05T14:46:36.400Z,2.47
2023-02-05T14:49:06.426Z,2.47
2023-02-05T14:51:41.273Z,2.75
2023-02-05T14:54:17.945Z,3.03
2023-02-05T14:56:49.861Z,2.58
2023-02-05T14:59:29.183Z,3.05
2023-02-05T15:01:57.245Z,3.15
2023-02-05T15:04:57.876Z,2.78
2023-02-05T15:07:27.519Z,3.20
2023-02-05T15:10:02.344Z,3.28
2023-02-05T15:12:51.302Z,3.78
2023-02-05T15:15:31.413Z,3.30
2023-02-05T15:18:04.828Z,3.45
2023-02-05T15:23:04.810Z,4.05
2023-02-05T15:25:36.640Z,3.65
2023-02-05T15:28:23.672Z,3.90
2023-02-05T15:30:57.615Z,3.90
2023-02-05T15:33:39.287Z,3.53
2023-02-05T15:36:13.239Z,3.75
2023-02-05T15:38:48.105Z,3.17
2023-02-05T15:41:15.854Z,4.55
2023-02-05T15:43:58.775Z,3.03
2023-02-05T15:46:25.877Z,3.78
2023-02-05T15:48:52.908Z,3.47
2023-02-05T15:51:39.618Z,3.22
2023-02-05T15:54:07.043Z,3.42
2023-02-05T15:56:37.520Z,3.70
2023-02-05T15:59:11.501Z,4.28
2023-02-05T16:01:44.872Z,3.35
2023-02-05T16:09:20.822Z,3.20
2023-02-05T16:11:48.209Z,3.63
2023-02-05T16:14:17.317Z,3.55
2023-02-05T16:17:15.555Z,3.25
2023-02-05T16:19:50.008Z,3.63
2023-02-05T16:22:40.531Z,3.55
2023-02-05T16:25:29.069Z,4.53
2023-02-05T16:27:57.450Z,4.20
2023-02-05T16:30:43.563Z,3.90
2023-02-05T16:33:45.469Z,3.88
2023-02-05T16:36:29.331Z,3.95
2023-02-05T16:38:59.192Z,3.45
2023-02-05T16:41:26.647Z,4.35
2023-02-05T16:43:55.627Z,4.20
2023-02-05T16:46:25.273Z,3.58
2023-02-05T16:48:57.725Z,4.35
2023-02-05T16:51:31.512Z,3.05
2023-02-05T16:54:00.605Z,3.45
2023-02-05T16:56:34.373Z,3.97
2023-02-05T16:59:02.982Z,4.38
2023-02-05T17:01:38.782Z,3.65
2023-02-05T17:04:05.364Z,3.90
2023-02-05T17:06:37.612Z,3.97
2023-02-05T17:09:05.461Z,3.78
2023-02-05T17:11:38.019Z,4.70
2023-02-05T17:14:29.195Z,4.50
2023-02-05T17:17:00.473Z,4.60
2023-02-05T17:19:32.381Z,3.53
2023-02-05T17:22:14.131Z,4.60
2023-02-05T17:24:46.214Z,4.80
2023-02-05T17:27:18.677Z,3.75
2023-02-05T17:29:46.086Z,4.13
2023-02-05T17:32:18.516Z,3.60
2023-02-05T17:34:45.818Z,4.18
2023-02-05T17:37:12.729Z,3.85
2023-02-05T17:39:40.822Z,4.10
2023-02-05T17:42:18.207Z,4.30
2023-02-05T17:44:44.585Z,4.22
2023-02-05T17:47:11.030Z,4.55
2023-02-05T17:49:37.377Z,4.15
2023-02-05T17:52:03.881Z,3.97
2023-02-05T17:54:30.900Z,4.35
2023-02-05T17:57:13.180Z,3.92
2023-02-05T17:59:40.259Z,3.47
2023-02-05T18:02:07.625Z,4.28
2023-02-05T18:04:34.214Z,4.35
2023-02-05T18:07:00.702Z,4.15
2023-02-05T18:09:27.535Z,4.50
2023-02-05T18:11:53.970Z,4.90
2023-02-05T18:14:21.657Z,3.97
2023-02-05T18:16:48.060Z,4.50
2023-02-05T18:19:14.505Z,4.35
2023-02-05T18:21:40.938Z,4.97
2023-02-05T18:24:07.419Z,4.90
2023-02-05T18:26:33.875Z,4.13
2023-02-05T18:29:00.262Z,4.80
2023-02-05T18:31:26.696Z,4.32
2023-02-05T18:33:54.045Z,5.97
2023-02-05T18:36:21.005Z,4.65
2023-02-05T18:38:47.442Z,3.80
2023-02-05T18:41:16.139Z,4.82
2023-02-05T18:43:43.533Z,4.40
2023-02-05T18:46:18.309Z,4.63
2023-02-05T18:48:49.186Z,4.97
2023-02-05T18:51:18.694Z,4.82
2023-02-05T18:53:47.318Z,4.63
2023-02-05T18:56:13.969Z,4.80
2023-02-05T18:58:40.830Z,5.15
2023-02-05T19:01:14.996Z,5.05
2023-02-05T19:03:42.737Z,5.18
2023-02-05T19:06:11.108Z,5.22
2023-02-05T19:08:38.184Z,5.15
2023-02-05T19:11:20.681Z,4.40
2023-02-05T19:13:48.073Z,5.70
2023-02-05T19:16:16.603Z,5.28
2023-02-05T19:18:45.014Z,4.95
2023-02-05T19:21:15.062Z,4.65
2023-02-05T19:23:42.025Z,5.43
2023-02-05T19:26:14.006Z,5.70
2023-02-05T19:28:43.779Z,5.95
2023-02-05T19:31:13.958Z,5.32
2023-02-05T19:33:41.628Z,5.75
2023-02-05T19:36:10.175Z,4.93
2023-02-05T19:38:38.499Z,5.07
2023-02-05T19:41:09.052Z,5.20
2023-02-05T19:43:35.874Z,5.53
2023-02-05T19:46:07.234Z,5.25
2023-02-05T19:48:34.474Z,5.40
2023-02-05T19:51:09.935Z,4.95
2023-02-05T19:53:38.979Z,5.53
2023-02-05T19:56:11.772Z,5.05
2023-02-05T19:58:40.432Z,5.18
2023-02-05T20:01:23.634Z,4.65
2023-02-05T20:03:52.180Z,5.57
2023-02-05T20:06:22.703Z,5.28
2023-02-05T20:08:49.241Z,5.28
2023-02-05T20:11:16.509Z,6.47
2023-02-05T20:13:42.991Z,5.93
2023-02-05T20:16:13.213Z,5.93
2023-02-05T20:18:41.341Z,6.85
2023-02-05T20:21:12.416Z,6.28
2023-02-05T20:23:40.032Z,5.68
2023-02-05T20:26:07.742Z,6.45
2023-02-05T20:28:59.390Z,6.45
2023-02-05T20:31:35.009Z,6.15
2023-02-05T20:34:03.048Z,5.65
2023-02-05T20:36:31.589Z,7.30
2023-02-05T20:38:59.784Z,5.47
2023-02-05T20:41:26.229Z,5.63
2023-02-05T20:43:53.644Z,6.15
2023-02-05T20:46:20.674Z,6.43
2023-02-05T20:48:48.338Z,5.82
2023-02-05T20:51:18.913Z,6.13
2023-02-05T20:53:46.229Z,6.20
2023-02-05T20:56:14.794Z,6.65
2023-02-05T20:58:41.611Z,6.78
2023-02-05T21:01:09.713Z,7.32
2023-02-05T21:03:37.122Z,7.35
2023-02-05T21:06:04.344Z,7.35
2023-02-05T21:08:30.930Z,6.28
2023-02-05T21:10:57.580Z,7.43
2023-02-05T21:13:23.943Z,6.60
2023-02-05T21:15:58.973Z,6.80
2023-02-05T21:18:26.695Z,7.65
2023-02-05T21:20:54.122Z,6.38
2023-02-05T21:23:21.222Z,7.43
2023-02-05T21:25:48.072Z,6.75
2023-02-05T21:28:14.783Z,7.63
2023-02-05T21:30:42.948Z,7.18
2023-02-05T21:33:09.363Z,8.80
2023-02-05T21:35:39.037Z,7.28
2023-02-05T21:38:05.511Z,8.45
2023-02-05T21:40:33.962Z,8.75
2023-02-05T21:43:00.576Z,7.93
2023-02-05T21:45:26.991Z,7.38
2023-02-05T21:47:53.391Z,7.32
2023-02-05T21:50:19.770Z,7.75
2023-02-05T21:52:46.216Z,7.68
2023-02-05T21:55:12.602Z,7.88
2023-02-05T21:57:38.949Z,8.05
2023-02-05T22:00:05.645Z,8.35
2023-02-05T22:02:38.487Z,8.23
2023-02-05T22:05:05.136Z,9.40
2023-02-05T22:07:31.758Z,8.27
2023-02-05T22:09:58.166Z,8.30
2023-02-05T22:12:24.511Z,7.72
2023-02-05T22:14:50.979Z,8.90
2023-02-05T22:17:17.352Z,7.93
2023-02-05T22:19:43.739Z,9.30
2023-02-05T22:22:10.113Z,7.82
2023-02-05T22:24:36.495Z,7.50
2023-02-05T22:27:03.124Z,8.38
2023-02-05T22:29:29.824Z,7.63
2023-02-05T22:31:56.262Z,9.38
2023-02-05T22:34:22.919Z,10.20
2023-02-05T22:36:49.557Z,9.93
2023-02-05T22:39:15.963Z,9.70
2023-02-05T22:41:44.418Z,9.57
2023-02-05T22:44:11.699Z,9.52
2023-02-05T22:46:41.578Z,10.15
2023-02-05T22:49:08.488Z,7.80
2023-02-05T22:51:37.722Z,8.45
2023-02-05T22:54:05.138Z,8.30
2023-02-05T22:56:32.506Z,7.93
2023-02-05T22:59:01.348Z,7.63
2023-02-05T23:01:32.597Z,9.35
2023-02-05T23:04:00.716Z,8.00
2023-02-05T23:06:30.677Z,8.35
2023-02-05T23:08:59.698Z,6.70
2023-02-05T23:11:28.025Z,7.55
2023-02-05T23:13:55.553Z,7.63
2023-02-05T23:16:30.992Z,7.78
2023-02-05T23:19:03.931Z,8.35
2023-02-05T23:21:32.993Z,8.00
2023-02-05T23:23:59.543Z,7.68
2023-02-05T23:26:28.729Z,7.28
2023-02-05T23:28:55.874Z,7.47
2023-02-05T23:31:24.314Z,6.97
2023-02-05T23:33:51.980Z,7.95
2023-02-05T23:36:18.517Z,7.90
2023-02-05T23:38:45.237Z,8.50
2023-02-05T23:41:12.199Z,7.63
2023-02-05T23:43:39.090Z,6.82
2023-02-05T23:46:07.399Z,7.65
2023-02-05T23:48:34.174Z,9.10
2023-02-05T23:51:00.861Z,8.50
2023-02-05T23:53:27.564Z,9.15
2023-02-05T23:55:54.144Z,8.10
2023-02-05T23:58:25.607Z,7.93
